Time;durP1;ratioP1;P1;durP2;ratioP2;P2;SDS_P1;SDS_P2;PMS_P1;PMS_P2;Temp;Humidity;BMP_temperature;BMP_pressure;BME280_temperature;BME280_humidity;BME280_pressure;Samples;Min_cycle;Max_cycle;Signal;HPM_P1;HPM_P2
2022/08/29 00:00:08;;;;;;;12.32;8.45;;;;;;;18.07;100.00;93186.00;5089866;28;20549;-83
2022/08/29 00:02:35;;;;;;;10.82;8.93;;;;;;;17.93;100.00;93172.69;5090054;28;20407;-82
2022/08/29 00:05:02;;;;;;;12.57;8.40;;;;;;;17.96;100.00;93183.34;5089915;28;20044;-82
2022/08/29 00:07:28;;;;;;;11.10;8.35;;;;;;;17.90;100.00;93179.97;5089319;28;20132;-82
2022/08/29 00:09:56;;;;;;;13.15;8.82;;;;;;;17.90;100.00;93177.38;5089118;28;20073;-82
2022/08/29 00:12:23;;;;;;;11.02;9.18;;;;;;;17.88;100.00;93182.03;5089786;28;20093;-82
2022/08/29 00:14:50;;;;;;;12.82;8.88;;;;;;;17.80;100.00;93174.72;5085393;28;20041;-82
2022/08/29 00:17:17;;;;;;;12.88;9.00;;;;;;;17.71;100.00;93174.44;5084434;28;20097;-82
2022/08/29 00:19:43;;;;;;;11.77;8.80;;;;;;;17.82;100.00;93188.25;5089550;28;20044;-82
2022/08/29 00:22:10;;;;;;;12.23;9.35;;;;;;;17.82;100.00;93190.06;5089888;28;20066;-82
2022/08/29 00:24:37;;;;;;;11.45;8.77;;;;;;;17.79;100.00;93178.38;5089814;28;20446;-82
2022/08/29 00:27:05;;;;;;;12.00;8.45;;;;;;;17.82;100.00;93182.28;5089091;28;20044;-82
2022/08/29 00:29:32;;;;;;;12.07;9.30;;;;;;;17.74;100.00;93184.31;5089200;28;20044;-82
2022/08/29 00:31:59;;;;;;;13.13;8.63;;;;;;;17.67;100.00;93183.78;5089149;28;20056;-82
2022/08/29 00:34:26;;;;;;;11.82;9.02;;;;;;;17.63;100.00;93182.72;5089558;28;20412;-82
2022/08/29 00:36:53;;;;;;;11.88;8.98;;;;;;;17.58;100.00;93167.91;5089814;28;20052;-80
2022/08/29 00:39:20;;;;;;;12.75;9.23;;;;;;;17.65;100.00;93177.28;5089168;28;20048;-80
2022/08/29 00:41:47;;;;;;;12.82;9.48;;;;;;;17.64;100.00;93176.50;5089656;28;20430;-80
2022/08/29 00:44:15;;;;;;;12.23;9.27;;;;;;;17.63;100.00;93180.91;5089119;28;20040;-80
2022/08/29 00:46:52;;;;;;;10.70;9.00;;;;;;;17.50;100.00;93161.38;5089123;28;20051;-80
2022/08/29 00:49:26;;;;;;;14.38;9.60;;;;;;;17.47;100.00;93161.09;5089005;28;20040;-81
2022/08/29 00:51:54;;;;;;;14.68;8.90;;;;;;;17.51;100.00;93175.16;5089261;28;20048;-81
2022/08/29 00:54:23;;;;;;;11.25;9.23;;;;;;;17.53;100.00;93162.69;5089184;28;20054;-81
2022/08/29 00:56:50;;;;;;;13.70;9.15;;;;;;;17.59;100.00;93166.88;5089467;28;20048;-81
2022/08/29 00:59:23;;;;;;;13.25;9.18;;;;;;;17.59;100.00;93173.88;5088838;28;20565;-83
2022/08/29 01:01:50;;;;;;;12.90;9.55;;;;;;;17.45;100.00;93155.41;5089027;28;20044;-84
2022/08/29 01:04:17;;;;;;;13.68;8.52;;;;;;;17.58;100.00;93174.91;5091707;28;20052;-83
2022/08/29 01:06:44;;;;;;;15.35;9.88;;;;;;;17.57;100.00;93175.94;5093012;28;20082;-83
2022/08/29 01:09:11;;;;;;;13.23;9.20;;;;;;;17.45;100.00;93163.94;5093105;28;20052;-83
2022/08/29 01:14:27;;;;;;;11.65;8.30;;;;;;;17.43;100.00;93166.03;5092290;28;20066;-80
2022/08/29 01:16:57;;;;;;;12.80;9.02;;;;;;;17.40;100.00;93176.91;5079044;28;20155;-80
2022/08/29 01:19:36;;;;;;;12.43;9.18;;;;;;;17.36;100.00;93173.28;5092856;28;20044;-79
2022/08/29 01:22:12;;;;;;;12.10;8.73;;;;;;;17.26;100.00;93161.00;5093165;28;20109;-79
2022/08/29 01:24:44;;;;;;;10.23;8.68;;;;;;;17.22;100.00;93157.38;5093504;28;20052;-79
2022/08/29 01:27:13;;;;;;;12.50;9.05;;;;;;;17.14;100.00;93145.66;5079811;28;20083;-82
2022/08/29 01:29:40;;;;;;;9.75;8.63;;;;;;;17.26;100.00;93168.78;5093022;28;20123;-81
2022/08/29 01:32:07;;;;;;;12.82;9.38;;;;;;;17.16;100.00;93150.56;5093102;28;20040;-83
2022/08/29 01:34:34;;;;;;;11.57;8.70;;;;;;;17.19;100.00;93156.06;5092964;28;20155;-80
2022/08/29 01:37:02;;;;;;;12.35;9.27;;;;;;;17.19;100.00;93163.06;5092706;28;20496;-82
2022/08/29 01:39:31;;;;;;;15.43;9.18;;;;;;;17.13;100.00;93162.22;5092536;28;20514;-83
2022/08/29 01:42:02;;;;;;;10.50;8.57;;;;;;;17.20;100.00;93169.81;5092836;28;20044;-84
2022/08/29 01:44:29;;;;;;;10.93;8.80;;;;;;;17.16;100.00;93172.13;5092869;28;20047;-84
2022/08/29 01:46:58;;;;;;;10.82;9.02;;;;;;;17.13;100.00;93172.63;5092506;28;20093;-82
2022/08/29 01:49:26;;;;;;;11.20;8.80;;;;;;;17.09;100.00;93174.16;5092137;28;20044;-83
2022/08/29 01:51:53;;;;;;;13.00;9.43;;;;;;;17.03;100.00;93178.53;5092631;28;20499;-83
2022/08/29 01:54:20;;;;;;;11.30;8.82;;;;;;;16.82;100.00;93156.84;5092504;28;20051;-83
2022/08/29 01:56:50;;;;;;;11.32;8.93;;;;;;;16.81;100.00;93166.44;5092646;28;20098;-83
2022/08/29 01:59:21;;;;;;;11.15;9.30;;;;;;;16.63;100.00;93143.50;5092248;28;20134;-83
2022/08/29 02:01:51;;;;;;;14.27;9.63;;;;;;;16.74;100.00;93165.88;5092586;28;20093;-83
2022/08/29 02:04:19;;;;;;;10.55;9.45;;;;;;;16.80;100.00;93190.03;5092130;28;20048;-83
2022/08/29 02:06:46;;;;;;;11.85;9.05;;;;;;;16.84;100.00;93180.72;5092327;28;20049;-82
2022/08/29 02:09:12;;;;;;;12.75;9.93;;;;;;;16.83;100.00;93185.13;5092086;28;20055;-82
2022/08/29 02:11:39;;;;;;;11.82;9.77;;;;;;;16.85;100.00;93187.47;5091900;28;20074;-82
2022/08/29 02:14:07;;;;;;;12.00;9.32;;;;;;;16.72;100.00;93183.50;5091742;28;20082;-82
2022/08/29 02:16:36;;;;;;;10.80;9.38;;;;;;;16.79;100.00;93194.44;5089875;28;20081;-82
2022/08/29 02:19:02;;;;;;;11.88;8.85;;;;;;;16.67;100.00;93179.03;5091861;28;20511;-81
2022/08/29 02:21:30;;;;;;;13.23;9.43;;;;;;;16.67;100.00;93188.66;5091813;28;20138;-81
2022/08/29 02:24:04;;;;;;;10.43;9.23;;;;;;;16.63;100.00;93185.78;5092112;28;20040;-81
2022/08/29 02:26:31;;;;;;;11.82;9.02;;;;;;;16.59;100.00;93184.69;5091669;28;20089;-81
2022/08/29 02:28:58;;;;;;;11.98;9.40;;;;;;;16.57;100.00;93186.75;5091981;28;20089;-82
2022/08/29 02:31:25;;;;;;;12.32;9.20;;;;;;;16.54;100.00;93193.19;5091575;28;20048;-82
2022/08/29 02:33:54;;;;;;;14.85;9.63;;;;;;;16.45;100.00;93186.91;5090210;28;20060;-82
2022/08/29 02:36:22;;;;;;;10.90;9.55;;;;;;;16.50;100.00;93194.75;5091689;28;20385;-82
2022/08/29 02:38:49;;;;;;;10.68;9.45;;;;;;;16.36;100.00;93171.03;5088880;28;20052;-82
2022/08/29 02:41:16;;;;;;;13.10;9.23;;;;;;;16.38;100.00;93166.38;5091172;28;20070;-83
2022/08/29 02:43:43;;;;;;;13.93;9.50;;;;;;;16.54;100.00;93190.59;5091216;28;20101;-84
2022/08/29 02:46:13;;;;;;;13.10;8.73;;;;;;;16.51;100.00;93185.94;5088924;28;20428;-84
2022/08/29 02:48:40;;;;;;;12.95;9.30;;;;;;;16.45;100.00;93170.56;5091219;28;20496;-84
2022/08/29 02:51:08;;;;;;;12.95;8.77;;;;;;;16.40;100.00;93173.91;5091329;28;20102;-82
2022/08/29 02:53:35;;;;;;;12.63;9.52;;;;;;;16.53;100.00;93191.63;5091110;28;20044;-82
2022/08/29 02:56:02;;;;;;;13.55;9.15;;;;;;;16.54;100.00;93190.59;5091343;28;20421;-82
2022/08/29 02:58:29;;;;;;;10.98;9.73;;;;;;;16.56;100.00;93185.97;5088665;28;20048;-82
2022/08/29 03:00:56;;;;;;;12.25;9.60;;;;;;;16.58;100.00;93196.09;5090959;28;20056;-82
2022/08/29 03:03:23;;;;;;;9.20;8.25;;;;;;;16.54;100.00;93195.78;5091138;28;20048;-82
2022/08/29 03:05:50;;;;;;;15.10;9.40;;;;;;;16.59;100.00;93207.25;5088156;28;20553;-82
2022/08/29 03:08:18;;;;;;;12.40;8.82;;;;;;;16.54;100.00;93208.75;5091173;28;20043;-81
2022/08/29 03:10:45;;;;;;;13.38;8.95;;;;;;;16.47;100.00;93207.41;5090489;28;20163;-81
2022/08/29 03:13:12;;;;;;;15.43;8.82;;;;;;;16.44;100.00;93211.28;5090691;28;20546;-81
2022/08/29 03:15:39;;;;;;;12.30;9.27;;;;;;;16.38;100.00;93212.28;5091171;28;20389;-81
2022/08/29 03:18:06;;;;;;;10.65;8.30;;;;;;;16.25;100.00;93198.66;5090382;28;20044;-82
2022/08/29 03:20:34;;;;;;;11.95;9.00;;;;;;;16.25;100.00;93201.25;5090437;28;20411;-83
2022/08/29 03:23:01;;;;;;;11.70;8.93;;;;;;;16.27;100.00;93219.16;5090943;28;20048;-82
2022/08/29 03:25:30;;;;;;;12.38;9.32;;;;;;;16.25;100.00;93214.22;5090533;28;20052;-83
2022/08/29 03:27:58;;;;;;;11.77;9.00;;;;;;;16.21;100.00;93202.78;5090223;28;20052;-84
2022/08/29 03:30:25;;;;;;;10.85;8.50;;;;;;;16.23;100.00;93210.28;5090431;28;20052;-82
2022/08/29 03:32:53;;;;;;;10.07;9.02;;;;;;;16.23;100.00;93218.88;5088020;28;20086;-83
2022/08/29 03:35:21;;;;;;;11.52;9.00;;;;;;;16.20;100.00;93221.94;5090637;28;20052;-83
2022/08/29 03:37:48;;;;;;;13.80;9.68;;;;;;;16.17;100.00;93225.03;5090400;28;20412;-82
2022/08/29 03:40:17;;;;;;;12.63;9.05;;;;;;;16.15;100.00;93219.28;5090761;28;20131;-79
2022/08/29 03:42:46;;;;;;;13.23;9.20;;;;;;;16.20;100.00;93232.28;5089935;28;20051;-78
2022/08/29 03:45:16;;;;;;;12.50;9.55;;;;;;;16.16;100.00;93221.63;5090121;28;20048;-78
2022/08/29 03:47:45;;;;;;;27.15;10.73;;;;;;;16.20;100.00;93221.94;5089644;28;20490;-78
2022/08/29 03:50:14;;;;;;;11.68;9.05;;;;;;;16.26;100.00;93233.13;5089977;28;20040;-78
2022/08/29 03:52:41;;;;;;;12.30;9.40;;;;;;;16.25;100.00;93227.16;5089807;28;20040;-78
2022/08/29 03:55:10;;;;;;;10.60;8.88;;;;;;;16.27;100.00;93232.09;5089803;28;20459;-78
2022/08/29 03:57:37;;;;;;;14.02;9.20;;;;;;;16.24;100.00;93228.19;5089596;28;20040;-78
2022/08/29 04:00:14;;;;;;;13.50;10.10;;;;;;;16.17;100.00;93222.44;5089410;28;20307;-78
2022/08/29 04:02:42;;;;;;;14.50;9.45;;;;;;;16.22;100.00;93227.66;5089619;28;20036;-78
2022/08/29 04:05:09;;;;;;;11.48;9.68;;;;;;;16.24;100.00;93228.19;5089429;28;20052;-78
2022/08/29 04:07:42;;;;;;;11.85;9.55;;;;;;;16.22;100.00;93225.06;5089329;28;20548;-78
2022/08/29 04:10:11;;;;;;;14.93;9.40;;;;;;;16.34;100.00;93229.34;5089712;28;20221;-78
2022/08/29 04:12:38;;;;;;;15.18;9.73;;;;;;;16.38;100.00;93240.78;5089561;28;20044;-78
2022/08/29 04:15:08;;;;;;;14.48;9.40;;;;;;;16.41;100.00;93238.47;5089432;28;20048;-78
2022/08/29 04:17:35;;;;;;;12.63;9.02;;;;;;;16.27;100.00;93221.75;5089482;28;20051;-77
2022/08/29 04:20:03;;;;;;;14.32;9.68;;;;;;;16.45;100.00;93233.59;5089388;28;20090;-77
2022/08/29 04:22:30;;;;;;;10.98;8.60;;;;;;;16.46;100.00;93234.34;5089357;28;20040;-77
2022/08/29 04:24:57;;;;;;;17.02;8.82;;;;;;;16.52;100.00;93241.94;5089611;28;20136;-78
2022/08/29 04:27:23;;;;;;;9.93;8.32;;;;;;;16.55;100.00;93240.66;5089046;28;20553;-78
2022/08/29 04:29:50;;;;;;;11.88;9.43;;;;;;;16.58;100.00;93241.97;5089113;28;20032;-79
2022/08/29 04:32:19;;;;;;;13.70;9.77;;;;;;;16.60;100.00;93245.91;5088856;28;20105;-80
2022/08/29 04:34:46;;;;;;;18.42;10.00;;;;;;;16.66;100.00;93254.53;5089008;28;20044;-80
2022/08/29 04:37:13;;;;;;;13.45;9.77;;;;;;;16.69;100.00;93254.81;5089255;28;20097;-80
2022/08/29 04:39:40;;;;;;;15.32;10.32;;;;;;;16.71;100.00;93251.94;5088588;28;20040;-79
2022/08/29 04:42:07;;;;;;;14.23;9.85;;;;;;;16.69;100.00;93241.84;5089080;28;20048;-79
2022/08/29 04:44:34;;;;;;;13.85;9.98;;;;;;;16.75;100.00;93249.66;5089183;28;20541;-81
2022/08/29 04:47:00;;;;;;;12.50;10.77;;;;;;;16.46;100.00;93248.09;5088765;28;20119;-81
2022/08/29 04:49:29;;;;;;;15.48;11.65;;;;;;;16.56;100.00;93250.00;5089166;28;20040;-81
2022/08/29 04:51:55;;;;;;;12.05;10.48;;;;;;;16.68;100.00;93257.63;5089009;28;20457;-81
2022/08/29 04:54:22;;;;;;;16.27;10.45;;;;;;;16.67;100.00;93235.34;5088985;28;20114;-82
2022/08/29 04:56:49;;;;;;;15.43;9.82;;;;;;;16.85;100.00;93260.09;5088969;28;20040;-82
2022/08/29 04:59:18;;;;;;;12.32;9.95;;;;;;;17.01;100.00;93263.63;5088744;28;20060;-83
2022/08/29 05:01:45;;;;;;;18.08;11.10;;;;;;;17.11;100.00;93264.75;5088829;28;20076;-82
2022/08/29 05:04:12;;;;;;;14.13;10.73;;;;;;;17.27;100.00;93269.00;5088926;28;20048;-82
2022/08/29 05:06:40;;;;;;;14.88;10.73;;;;;;;17.33;100.00;93257.63;5088907;28;20047;-82
2022/08/29 05:09:07;;;;;;;15.35;10.77;;;;;;;17.48;100.00;93262.13;5088708;28;20040;-83
2022/08/29 05:11:34;;;;;;;14.50;10.13;;;;;;;17.67;100.00;93279.13;5088981;28;20434;-83
2022/08/29 05:14:02;;;;;;;16.13;10.38;;;;;;;17.72;100.00;93269.53;5088805;28;20040;-83
2022/08/29 05:16:30;;;;;;;20.20;10.88;;;;;;;17.84;100.00;93276.34;5088726;28;20468;-83
2022/08/29 05:18:59;;;;;;;16.40;10.80;;;;;;;17.94;100.00;93278.19;5088483;28;20557;-83
2022/08/29 05:21:30;;;;;;;14.23;9.88;;;;;;;18.02;100.00;93277.72;5088569;28;20128;-83
2022/08/29 05:23:59;;;;;;;17.27;10.65;;;;;;;17.99;100.00;93271.22;5088823;28;20067;-83
2022/08/29 05:26:30;;;;;;;16.58;10.63;;;;;;;18.10;100.00;93276.47;5088232;28;20128;-83
2022/08/29 05:28:56;;;;;;;16.10;9.43;;;;;;;18.13;100.00;93271.53;5088413;28;20043;-83
2022/08/29 05:31:23;;;;;;;16.30;10.27;;;;;;;18.26;100.00;93274.69;5088480;28;20055;-83
2022/08/29 05:33:50;;;;;;;11.82;9.38;;;;;;;18.36;100.00;93279.94;5088348;28;20105;-83
2022/08/29 05:36:17;;;;;;;15.93;9.93;;;;;;;18.29;100.00;93279.41;5088839;28;20073;-83
2022/08/29 05:38:45;;;;;;;20.95;11.60;;;;;;;18.25;100.00;93280.94;5088475;28;20052;-83
2022/08/29 05:41:13;;;;;;;14.63;10.95;;;;;;;18.07;100.00;93282.97;5088635;28;20072;-83
2022/08/29 05:43:40;;;;;;;14.35;11.10;;;;;;;18.08;100.00;93281.91;5088524;28;20040;-83
2022/08/29 05:46:10;;;;;;;15.70;11.10;;;;;;;18.12;100.00;93280.38;5088313;28;20051;-84
2022/08/29 05:48:40;;;;;;;19.58;11.38;;;;;;;18.20;100.00;93276.50;5088272;28;20565;-84
2022/08/29 05:51:07;;;;;;;21.63;11.75;;;;;;;18.23;100.00;93281.19;5092211;28;20123;-83
2022/08/29 05:53:34;;;;;;;21.55;10.50;;;;;;;18.14;100.00;93270.50;5092268;28;20048;-83
2022/08/29 05:56:01;;;;;;;14.65;10.02;;;;;;;18.27;100.00;93271.06;5092196;28;20040;-83
2022/08/29 05:58:29;;;;;;;16.83;10.88;;;;;;;18.38;100.00;93277.06;5091852;28;20670;-83
2022/08/29 06:00:56;;;;;;;15.93;10.70;;;;;;;18.48;100.00;93276.31;5092363;28;20389;-83
2022/08/29 06:03:22;;;;;;;21.02;11.13;;;;;;;18.62;100.00;93293.00;5091632;28;20052;-83
2022/08/29 06:05:51;;;;;;;16.60;11.88;;;;;;;18.65;100.00;93289.88;5091687;28;20090;-83
2022/08/29 06:08:18;;;;;;;13.10;11.00;;;;;;;18.49;100.00;93264.88;5091796;28;20518;-83
2022/08/29 06:10:48;;;;;;;20.05;10.63;;;;;;;18.68;100.00;93285.97;5091773;28;20109;-83
2022/08/29 06:13:15;;;;;;;16.45;11.52;;;;;;;18.58;100.00;93272.94;5091454;28;20492;-83
2022/08/29 06:15:45;;;;;;;22.38;11.60;;;;;;;18.83;100.00;93286.00;5091823;28;20081;-84
2022/08/29 06:18:12;;;;;;;18.90;11.60;;;;;;;19.07;100.00;93290.72;5091362;28;20048;-83
2022/08/29 06:20:40;;;;;;;18.80;11.10;;;;;;;19.26;100.00;93295.41;5091685;28;20036;-83
2022/08/29 06:23:07;;;;;;;17.10;11.07;;;;;;;19.45;100.00;93298.22;5091771;28;20039;-83
2022/08/29 06:25:33;;;;;;;17.30;11.57;;;;;;;19.66;100.00;93295.59;5091333;28;20047;-82
2022/08/29 06:28:01;;;;;;;16.45;11.30;;;;;;;19.86;100.00;93296.59;5091672;28;20040;-83
2022/08/29 06:30:30;;;;;;;21.10;10.35;;;;;;;20.06;100.00;93284.56;5091653;28;20097;-83
2022/08/29 06:32:58;;;;;;;17.77;10.60;;;;;;;20.47;99.77;93300.03;5088426;28;20315;-83
2022/08/29 06:35:25;;;;;;;22.48;11.32;;;;;;;20.77;97.18;93305.31;5089306;28;20071;-82
2022/08/29 06:37:52;;;;;;;20.90;10.35;;;;;;;20.99;95.64;93309.38;5090135;28;20040;-81
2022/08/29 06:40:19;;;;;;;18.05;9.38;;;;;;;21.13;93.83;93312.16;5091224;28;20442;-84
2022/08/29 06:42:45;;;;;;;15.25;9.60;;;;;;;21.26;92.30;93308.16;5090899;28;20404;-84
2022/08/29 06:45:12;;;;;;;22.50;10.80;;;;;;;21.45;91.49;93310.84;5091111;28;20093;-84
2022/08/29 06:47:39;;;;;;;18.67;9.93;;;;;;;21.61;91.69;93309.66;5091040;28;20101;-84
2022/08/29 06:50:08;;;;;;;16.65;10.00;;;;;;;21.85;90.55;93313.41;5090504;28;20389;-82
2022/08/29 06:52:35;;;;;;;13.70;9.13;;;;;;;22.07;88.88;93307.66;5090822;28;20044;-81
2022/08/29 06:55:04;;;;;;;15.82;9.20;;;;;;;22.24;87.23;93306.41;5090796;28;20159;-81
2022/08/29 06:57:31;;;;;;;13.85;10.02;;;;;;;22.40;86.89;93312.25;5090877;28;20051;-80
2022/08/29 06:59:58;;;;;;;13.23;8.90;;;;;;;22.68;86.68;93313.22;5090957;28;20063;-81
2022/08/29 07:02:24;;;;;;;14.70;8.93;;;;;;;23.00;84.80;93318.78;5090103;28;21311;-81
2022/08/29 07:04:51;;;;;;;21.00;8.48;;;;;;;23.30;81.56;93327.25;5090749;28;20094;-82
2022/08/29 07:07:19;;;;;;;19.02;9.38;;;;;;;23.09;82.93;93330.19;5090820;28;20392;-80
2022/08/29 07:09:46;;;;;;;16.33;8.23;;;;;;;23.30;82.28;93318.59;5091218;28;20060;-82
2022/08/29 07:12:13;;;;;;;14.65;8.13;;;;;;;23.53;81.75;93319.56;5070538;28;20044;-82
2022/08/29 07:14:39;;;;;;;17.85;8.60;;;;;;;23.70;80.26;93334.72;5082891;28;20052;-82
2022/08/29 07:17:06;;;;;;;14.73;8.93;;;;;;;23.82;78.52;93338.72;5090954;28;20101;-82
2022/08/29 07:19:33;;;;;;;16.30;9.20;;;;;;;23.76;77.79;93336.19;5090939;28;20044;-82
2022/08/29 07:22:00;;;;;;;16.30;9.75;;;;;;;23.94;78.66;93336.44;5090490;28;20500;-82
2022/08/29 07:24:28;;;;;;;16.73;9.43;;;;;;;23.98;78.11;93334.00;5090595;28;20131;-81
2022/08/29 07:26:55;;;;;;;17.00;8.98;;;;;;;23.98;77.22;93316.41;5090514;28;20105;-82
2022/08/29 07:29:23;;;;;;;19.02;9.20;;;;;;;23.84;77.44;93313.00;5090746;28;20059;-82
2022/08/29 07:31:50;;;;;;;20.33;8.77;;;;;;;23.87;78.28;93328.16;5090531;28;20044;-82
2022/08/29 07:34:18;;;;;;;16.73;8.73;;;;;;;23.37;80.05;93313.78;5090077;28;20082;-81
2022/08/29 07:36:45;;;;;;;18.60;9.15;;;;;;;22.70;84.86;93333.88;5090531;28;20059;-81
2022/08/29 07:39:15;;;;;;;15.88;9.30;;;;;;;22.50;84.82;93333.03;5090268;28;20541;-83
2022/08/29 07:41:44;;;;;;;16.85;9.40;;;;;;;22.63;86.36;93328.97;5090300;28;20093;-79
2022/08/29 07:44:12;;;;;;;13.80;8.75;;;;;;;22.66;86.37;93333.66;5090503;28;20427;-82
2022/08/29 07:46:39;;;;;;;14.98;7.75;;;;;;;22.64;86.76;93327.91;5090482;28;20402;-81
2022/08/29 07:49:06;;;;;;;13.73;8.35;;;;;;;22.97;84.05;93319.38;5090033;28;20048;-82
2022/08/29 07:51:34;;;;;;;13.02;8.32;;;;;;;23.18;85.75;93332.94;5090394;28;20099;-81
2022/08/29 07:54:00;;;;;;;19.27;9.00;;;;;;;23.26;82.81;93326.25;5090500;28;20113;-81
2022/08/29 07:56:30;;;;;;;16.75;9.77;;;;;;;23.36;82.74;93325.34;5090204;28;20051;-81
2022/08/29 07:58:59;;;;;;;20.83;10.10;;;;;;;23.39;82.23;93322.16;5090990;28;20180;-80
2022/08/29 08:01:27;;;;;;;12.75;9.68;;;;;;;23.60;80.38;93327.81;5090000;28;20415;-81
2022/08/29 08:03:54;;;;;;;14.05;9.00;;;;;;;23.60;81.14;93327.81;5089903;28;20048;-81
2022/08/29 08:06:23;;;;;;;13.23;8.18;;;;;;;23.88;80.67;93303.47;5089896;28;20047;-81
2022/08/29 08:08:51;;;;;;;15.45;8.45;;;;;;;23.54;80.76;93310.63;5089661;28;20051;-81
2022/08/29 08:11:20;;;;;;;11.23;7.88;;;;;;;23.93;79.74;93323.59;5089905;28;20044;-81
2022/08/29 08:13:47;;;;;;;13.00;8.15;;;;;;;24.11;77.88;93330.63;5088893;28;20101;-82
2022/08/29 08:16:19;;;;;;;11.68;7.13;;;;;;;24.37;77.26;93327.50;5089630;28;20052;-81
2022/08/29 08:18:46;;;;;;;16.00;7.60;;;;;;;24.38;76.18;93315.16;5089678;28;20046;-82
2022/08/29 08:21:13;;;;;;;13.32;7.32;;;;;;;24.89;77.71;93325.66;5089678;28;20089;-81
2022/08/29 08:23:40;;;;;;;16.02;8.25;;;;;;;25.29;74.97;93325.81;5089752;28;20544;-82
2022/08/29 08:26:09;;;;;;;11.52;6.55;;;;;;;25.23;68.54;93321.75;5089919;28;20105;-83
2022/08/29 08:28:36;;;;;;;12.85;6.78;;;;;;;25.45;68.52;93334.09;5089649;28;20040;-82
2022/08/29 08:31:06;;;;;;;13.18;7.22;;;;;;;25.67;69.79;93332.56;5088966;28;20040;-82
2022/08/29 08:33:37;;;;;;;11.65;7.97;;;;;;;25.69;68.92;93335.66;5089290;28;20068;-82
2022/08/29 08:36:05;;;;;;;11.25;7.63;;;;;;;25.84;70.33;93321.34;5075128;28;20048;-82
2022/08/29 08:38:32;;;;;;;8.73;6.65;;;;;;;26.28;65.60;93341.78;5089620;28;20044;-81
2022/08/29 08:41:06;;;;;;;10.13;6.32;;;;;;;26.24;64.86;93330.34;5089199;28;20615;-81
2022/08/29 08:43:48;;;;;;;15.15;6.97;;;;;;;26.60;63.85;93333.84;5089461;28;20091;-82
2022/08/29 08:46:16;;;;;;;10.68;6.18;;;;;;;26.66;64.15;93337.88;5089384;28;20048;-82
2022/08/29 08:48:47;;;;;;;11.80;7.60;;;;;;;26.70;65.99;93320.34;5089422;28;20056;-80
2022/08/29 08:51:18;;;;;;;12.68;7.15;;;;;;;26.61;66.02;93319.56;5089086;28;20700;-80
2022/08/29 08:53:48;;;;;;;14.90;7.47;;;;;;;26.23;65.98;93320.84;5089260;28;20097;-81
2022/08/29 08:56:22;;;;;;;10.15;6.85;;;;;;;26.15;68.39;93328.41;5089347;28;20048;-81
2022/08/29 08:58:54;;;;;;;13.65;7.35;;;;;;;25.57;71.13;93317.03;5089423;28;20040;-81
2022/08/29 09:01:25;;;;;;;13.00;6.82;;;;;;;25.90;71.64;93311.44;5089445;28;20044;-81
2022/08/29 09:04:09;;;;;;;9.23;6.40;;;;;;;26.08;68.76;93311.50;5089378;28;20044;-82
2022/08/29 09:06:50;;;;;;;10.40;7.43;;;;;;;25.99;70.14;93290.44;5089314;28;20043;-81
2022/08/29 09:09:26;;;;;;;10.40;6.50;;;;;;;26.42;67.78;93308.22;5089095;28;20052;-82
2022/08/29 09:12:04;;;;;;;10.18;7.38;;;;;;;26.83;66.05;93308.09;5089318;28;20044;-81
2022/08/29 09:14:47;;;;;;;13.63;6.45;;;;;;;26.90;64.17;93313.69;5089184;28;20040;-80
2022/08/29 09:17:21;;;;;;;10.63;6.85;;;;;;;26.42;66.75;93308.22;5088954;28;20492;-81
2022/08/29 09:19:50;;;;;;;9.85;7.35;;;;;;;26.87;65.81;93311.69;5089152;28;20044;-81
2022/08/29 09:22:23;;;;;;;12.52;7.55;;;;;;;26.88;63.39;93309.84;5088934;28;20051;-82
2022/08/29 09:24:56;;;;;;;11.05;6.65;;;;;;;26.88;60.95;93313.22;5090789;28;20094;-82
2022/08/29 09:27:25;;;;;;;11.88;6.72;;;;;;;27.20;63.52;93305.94;5093086;28;20055;-82
2022/08/29 09:30:01;;;;;;;15.02;7.68;;;;;;;27.15;62.78;93292.94;5092882;28;20097;-82
2022/08/29 09:32:28;;;;;;;13.90;7.38;;;;;;;27.36;63.62;93292.28;5092957;28;20421;-82
2022/08/29 09:34:56;;;;;;;9.95;6.90;;;;;;;27.58;60.45;93301.06;5092758;28;20504;-82
2022/08/29 09:37:25;;;;;;;9.68;7.38;;;;;;;27.86;63.19;93293.53;5093091;28;20052;-81
2022/08/29 09:39:55;;;;;;;9.95;6.50;;;;;;;28.07;60.73;93298.13;5092837;28;20126;-82
2022/08/29 09:42:23;;;;;;;12.38;7.18;;;;;;;28.33;60.39;93293.81;5092778;28;20048;-81
2022/08/29 09:44:55;;;;;;;12.77;7.05;;;;;;;28.22;58.45;93288.88;5092795;28;20036;-81
2022/08/29 09:47:24;;;;;;;11.95;6.93;;;;;;;28.29;57.83;93280.47;5092472;28;20104;-82
2022/08/29 09:50:10;;;;;;;11.98;7.25;;;;;;;28.65;58.83;93279.13;5092661;28;20047;-81
2022/08/29 09:52:39;;;;;;;13.05;7.70;;;;;;;28.99;60.17;93283.72;5092546;28;20450;-84
2022/08/29 09:55:27;;;;;;;12.38;6.97;;;;;;;28.03;60.83;93277.97;5092208;28;20039;-80
2022/08/29 09:57:59;;;;;;;11.43;7.03;;;;;;;28.11;61.61;93270.00;5092422;28;20110;-80
2022/08/29 10:00:30;;;;;;;12.80;7.03;;;;;;;28.59;61.00;93258.53;5092287;28;20082;-80
2022/08/29 10:02:59;;;;;;;12.73;7.50;;;;;;;28.51;58.28;93255.63;5092154;28;20536;-80
2022/08/29 10:05:33;;;;;;;11.18;6.05;;;;;;;28.85;55.58;93260.19;5092425;28;20117;-80
2022/08/29 10:08:01;;;;;;;11.82;6.50;;;;;;;29.20;56.25;93254.59;5092435;28;20062;-79
2022/08/29 10:10:31;;;;;;;11.05;6.68;;;;;;;29.58;55.61;93258.88;5092390;28;20070;-80
2022/08/29 10:13:05;;;;;;;10.40;7.07;;;;;;;29.73;53.89;93254.06;5092437;28;20146;-80
2022/08/29 10:15:36;;;;;;;13.45;7.28;;;;;;;30.20;52.55;93255.50;5092588;28;20044;-80
2022/08/29 10:18:23;;;;;;;8.77;5.95;;;;;;;30.50;52.12;93243.88;5091951;28;20109;-80
2022/08/29 10:21:08;;;;;;;9.77;6.25;;;;;;;30.89;50.93;93238.91;5091962;28;20511;-79
2022/08/29 10:23:53;;;;;;;10.70;5.88;;;;;;;31.33;49.67;93235.50;5092135;28;20119;-79
2022/08/29 10:26:33;;;;;;;9.65;5.88;;;;;;;31.61;46.06;93231.25;5092410;28;20078;-80
2022/08/29 10:29:08;;;;;;;10.75;6.22;;;;;;;31.48;45.13;93225.25;5079450;28;20503;-81
2022/08/29 10:31:40;;;;;;;9.45;6.00;;;;;;;31.80;46.68;93219.91;5091917;28;20385;-80
2022/08/29 10:34:21;;;;;;;8.73;5.78;;;;;;;32.01;44.12;93208.25;5091552;28;20056;-79
2022/08/29 10:37:00;;;;;;;16.05;6.25;;;;;;;32.33;43.06;93218.03;5090982;28;20434;-81
2022/08/29 10:39:35;;;;;;;8.07;5.22;;;;;;;31.88;41.46;93223.53;5092030;28;20530;-81
2022/08/29 10:42:08;;;;;;;9.18;5.38;;;;;;;30.87;43.77;93211.19;5091521;28;20052;-80
2022/08/29 10:44:48;;;;;;;7.20;5.40;;;;;;;31.28;42.38;93214.53;5091490;28;20480;-81
2022/08/29 10:47:25;;;;;;;10.10;5.78;;;;;;;31.76;44.14;93218.28;5091250;28;20058;-80
2022/08/29 10:50:11;;;;;;;10.60;6.63;;;;;;;31.80;44.10;93208.53;5091546;28;20054;-80
2022/08/29 10:52:49;;;;;;;11.25;6.22;;;;;;;32.21;39.48;93208.31;5091182;28;20500;-81
2022/08/29 10:55:27;;;;;;;11.85;6.05;;;;;;;32.46;39.42;93211.50;5091363;28;20040;-81
2022/08/29 10:58:04;;;;;;;9.05;4.85;;;;;;;32.43;39.15;93204.22;5091027;28;20051;-80
2022/08/29 11:00:42;;;;;;;13.02;5.72;;;;;;;32.64;40.10;93187.91;5091333;28;20040;-81
2022/08/29 11:03:18;;;;;;;11.30;4.90;;;;;;;33.13;39.03;93204.41;5091526;28;20075;-80
2022/08/29 11:05:50;;;;;;;9.35;4.90;;;;;;;33.15;37.11;93202.16;5091120;28;20066;-81
2022/08/29 11:08:25;;;;;;;8.60;4.82;;;;;;;33.40;39.51;93190.38;5091305;28;20043;-81
2022/08/29 11:10:52;;;;;;;10.18;5.00;;;;;;;33.50;38.32;93194.34;5091489;28;20048;-83
2022/08/29 11:13:23;;;;;;;11.60;5.40;;;;;;;33.29;39.38;93188.34;5088404;28;20052;-81
2022/08/29 11:16:02;;;;;;;8.30;5.68;;;;;;;33.63;40.31;93187.72;5086564;28;20075;-83
2022/08/29 11:18:35;;;;;;;11.82;5.57;;;;;;;33.91;40.00;93183.94;5087558;28;20044;-81
2022/08/29 11:21:13;;;;;;;6.72;4.95;;;;;;;34.08;38.60;93189.91;5090941;28;20048;-84
2022/08/29 11:23:45;;;;;;;6.43;3.95;;;;;;;34.07;35.49;93183.06;5090857;28;20051;-81
2022/08/29 11:26:21;;;;;;;8.82;3.83;;;;;;;33.85;33.40;93175.50;5090513;28;20041;-80
2022/08/29 11:28:56;;;;;;;6.80;4.10;;;;;;;33.65;32.30;93179.41;5090779;28;20044;-81
2022/08/29 11:31:38;;;;;;;5.47;4.38;;;;;;;33.39;33.23;93167.56;5090180;28;20496;-81